createdAt,value
2019-01-14T00:00:47.270Z,97.82
2019-01-14T00:01:53.417Z,98.90
2019-01-14T00:02:59.084Z,100.00
2019-01-14T00:04:04.719Z,100.00
2019-01-14T00:05:10.445Z,100.00
2019-01-14T00:06:17.366Z,100.00
2019-01-14T00:07:23.720Z,100.00
2019-01-14T00:08:29.491Z,100.00
2019-01-14T00:09:38.361Z,100.00
2019-01-14T00:10:43.384Z,100.00
2019-01-14T00:11:49.765Z,100.00
2019-01-14T00:12:56.119Z,100.00
2019-01-14T00:14:02.186Z,100.00
2019-01-14T00:15:07.546Z,100.00
2019-01-14T00:16:13.909Z,100.00
2019-01-14T00:17:20.282Z,100.00
2019-01-14T00:18:27.133Z,99.67
2019-01-14T00:19:33.076Z,100.00
2019-01-14T00:20:39.365Z,100.00
2019-01-14T00:21:45.752Z,99.27
2019-01-14T00:22:52.060Z,97.62
2019-01-14T00:23:58.378Z,96.26
2019-01-14T00:25:04.074Z,95.62
2019-01-14T00:26:10.947Z,95.42
2019-01-14T00:27:16.846Z,95.12
2019-01-14T00:28:22.830Z,93.64
2019-01-14T00:29:29.151Z,94.15
2019-01-14T00:30:35.473Z,94.10
2019-01-14T00:31:41.826Z,94.20
2019-01-14T00:32:48.143Z,94.12
2019-01-14T00:33:54.268Z,94.46
2019-01-14T00:35:00.588Z,94.40
2019-01-14T00:36:06.627Z,94.71
2019-01-14T00:37:12.639Z,95.27
2019-01-14T00:38:18.936Z,95.12
2019-01-14T00:39:25.251Z,95.80
2019-01-14T00:40:31.567Z,95.41
2019-01-14T00:41:37.905Z,96.39
2019-01-14T00:42:44.278Z,95.70
2019-01-14T00:43:50.549Z,96.08
2019-01-14T00:44:56.837Z,95.87
2019-01-14T00:46:02.782Z,95.16
2019-01-14T00:47:09.142Z,95.99
2019-01-14T00:48:15.457Z,96.18
2019-01-14T00:49:21.806Z,95.49
2019-01-14T00:50:28.096Z,94.99
2019-01-14T00:51:34.524Z,94.35
2019-01-14T00:52:40.988Z,94.24
2019-01-14T00:53:47.336Z,93.56
2019-01-14T00:54:53.656Z,93.06
2019-01-14T00:56:00.007Z,93.35
2019-01-14T00:57:06.343Z,93.53
2019-01-14T00:58:12.724Z,93.97
2019-01-14T00:59:18.662Z,92.74
2019-01-14T01:00:24.430Z,93.31
2019-01-14T01:01:30.421Z,93.82
2019-01-14T01:02:36.750Z,93.90
2019-01-14T01:03:43.059Z,93.65
2019-01-14T01:04:49.328Z,93.88
2019-01-14T01:05:55.327Z,94.24
2019-01-14T01:07:01.641Z,94.36
2019-01-14T01:08:07.583Z,93.72
2019-01-14T01:09:13.519Z,93.64
2019-01-14T01:10:18.949Z,93.62
2019-01-14T01:11:25.952Z,93.82
2019-01-14T01:12:33.258Z,93.92
2019-01-14T01:13:39.696Z,94.16
2019-01-14T01:14:46.016Z,93.74
2019-01-14T01:15:52.361Z,93.66
2019-01-14T01:16:58.662Z,93.50
2019-01-14T01:18:04.820Z,93.42
2019-01-14T01:19:11.172Z,93.28
2019-01-14T01:20:16.558Z,93.56
2019-01-14T01:21:22.918Z,93.13
2019-01-14T01:22:29.275Z,93.12
2019-01-14T01:23:35.609Z,93.52
2019-01-14T01:24:41.981Z,93.00
2019-01-14T01:25:48.290Z,92.45
2019-01-14T01:26:54.589Z,93.08
2019-01-14T01:28:00.931Z,92.97
2019-01-14T01:29:07.247Z,94.18
2019-01-14T01:30:16.165Z,94.48
2019-01-14T01:31:22.447Z,94.21
2019-01-14T01:32:28.437Z,93.18
2019-01-14T01:33:35.550Z,93.16
2019-01-14T01:34:42.596Z,93.16
2019-01-14T01:35:48.886Z,93.08
2019-01-14T01:36:55.215Z,92.68
2019-01-14T01:38:01.581Z,91.51
2019-01-14T01:39:06.954Z,91.07
2019-01-14T01:40:13.382Z,90.67
2019-01-14T01:41:19.716Z,90.05
2019-01-14T01:42:26.040Z,89.69
2019-01-14T01:43:32.354Z,89.30
2019-01-14T01:44:38.647Z,89.56
2019-01-14T01:45:44.972Z,89.68
2019-01-14T01:46:51.257Z,89.00
2019-01-14T01:47:57.583Z,88.49
2019-01-14T01:49:03.613Z,88.73
2019-01-14T01:50:09.221Z,88.93
2019-01-14T01:51:15.522Z,88.10
2019-01-14T01:52:21.878Z,87.10
2019-01-14T01:53:28.299Z,87.76
2019-01-14T01:54:34.650Z,87.93
2019-01-14T01:55:40.937Z,87.76
2019-01-14T01:56:47.248Z,86.81
2019-01-14T01:57:54.435Z,86.45
2019-01-14T01:59:01.618Z,86.77
2019-01-14T02:00:09.171Z,86.30
2019-01-14T02:01:15.564Z,85.42
2019-01-14T02:02:21.876Z,85.69
2019-01-14T02:03:28.189Z,85.52
2019-01-14T02:04:34.495Z,84.85
2019-01-14T02:05:40.825Z,84.71
2019-01-14T02:06:47.178Z,84.63
2019-01-14T02:07:53.518Z,84.70
2019-01-14T02:08:59.818Z,85.14
2019-01-14T02:10:06.273Z,84.85
2019-01-14T02:11:12.601Z,84.85
2019-01-14T02:12:19.295Z,84.64
2019-01-14T02:13:25.270Z,84.77
2019-01-14T02:14:31.579Z,84.18
2019-01-14T02:15:37.596Z,83.29
2019-01-14T02:16:43.689Z,83.09
2019-01-14T02:17:49.341Z,82.60
2019-01-14T02:18:55.609Z,82.49
2019-01-14T02:20:01.515Z,83.39
2019-01-14T02:21:07.559Z,82.81
2019-01-14T02:22:13.855Z,82.77
2019-01-14T02:23:20.197Z,83.27
2019-01-14T02:24:26.550Z,84.10
2019-01-14T02:25:32.906Z,84.66
2019-01-14T02:26:39.241Z,84.18
2019-01-14T02:27:45.539Z,84.14
2019-01-14T02:28:51.869Z,84.33
2019-01-14T02:29:58.193Z,83.94
2019-01-14T02:31:04.187Z,84.75
2019-01-14T02:32:10.492Z,84.91
2019-01-14T02:33:16.853Z,84.87
2019-01-14T02:34:23.199Z,85.65
2019-01-14T02:35:29.508Z,85.98
2019-01-14T02:36:35.833Z,85.59
2019-01-14T02:37:42.114Z,86.24
2019-01-14T02:38:48.480Z,85.88
2019-01-14T02:39:54.820Z,86.04
2019-01-14T02:41:01.116Z,86.26
2019-01-14T02:42:07.486Z,86.20
2019-01-14T02:43:14.822Z,85.87
2019-01-14T02:44:21.119Z,85.71
2019-01-14T02:45:27.420Z,85.28
2019-01-14T02:46:33.401Z,84.80
2019-01-14T02:47:39.430Z,84.92
2019-01-14T02:48:45.738Z,84.85
2019-01-14T02:49:52.025Z,83.95
2019-01-14T02:50:58.335Z,84.05
2019-01-14T02:52:04.319Z,83.26
2019-01-14T02:53:10.662Z,83.29
2019-01-14T02:54:17.005Z,83.03
2019-01-14T02:55:23.327Z,83.14
2019-01-14T02:56:29.636Z,82.39
2019-01-14T02:57:35.925Z,82.66
2019-01-14T02:58:42.244Z,82.12
2019-01-14T02:59:48.547Z,81.59
2019-01-14T03:00:54.484Z,80.61
2019-01-14T03:02:00.490Z,79.53
2019-01-14T03:03:06.446Z,79.57
2019-01-14T03:04:12.755Z,79.96
2019-01-14T03:05:19.050Z,80.88
2019-01-14T03:06:25.311Z,80.20
2019-01-14T03:07:32.220Z,79.64
2019-01-14T03:08:38.559Z,79.88
2019-01-14T03:09:44.839Z,79.24
2019-01-14T03:10:51.147Z,78.86
2019-01-14T03:11:58.209Z,79.36
2019-01-14T03:13:04.679Z,79.69
2019-01-14T03:14:11.042Z,80.05
2019-01-14T03:15:16.624Z,80.20
2019-01-14T03:16:22.930Z,80.65
2019-01-14T03:17:29.268Z,81.04
2019-01-14T03:18:35.572Z,80.43
2019-01-14T03:19:41.914Z,80.57
2019-01-14T03:20:48.200Z,81.10
2019-01-14T03:21:54.615Z,81.24
2019-01-14T03:23:00.930Z,81.09
2019-01-14T03:24:07.270Z,81.70
2019-01-14T03:25:12.881Z,81.91
2019-01-14T03:26:19.182Z,82.33
2019-01-14T03:27:25.478Z,82.27
2019-01-14T03:28:31.752Z,82.70
2019-01-14T03:29:38.070Z,83.38
2019-01-14T03:30:44.368Z,83.02
2019-01-14T03:31:50.764Z,83.00
2019-01-14T03:32:57.121Z,83.31
2019-01-14T03:34:03.462Z,82.56
2019-01-14T03:35:09.090Z,82.45
2019-01-14T03:36:15.381Z,83.54
2019-01-14T03:37:21.683Z,83.08
2019-01-14T03:38:28.029Z,82.89
2019-01-14T03:39:34.398Z,82.27
2019-01-14T03:40:40.722Z,81.38
2019-01-14T03:41:47.010Z,81.59
2019-01-14T03:42:53.291Z,81.55
2019-01-14T03:43:59.662Z,81.27
2019-01-14T03:45:05.331Z,81.29
2019-01-14T03:46:11.346Z,80.76
2019-01-14T03:47:17.663Z,80.61
2019-01-14T03:48:23.948Z,80.52
2019-01-14T03:49:30.323Z,81.20
2019-01-14T03:50:36.669Z,80.49
2019-01-14T03:51:42.653Z,80.75
2019-01-14T03:52:48.242Z,80.76
2019-01-14T03:53:54.207Z,80.82
2019-01-14T03:55:00.546Z,80.74
2019-01-14T03:56:06.890Z,80.93
2019-01-14T03:57:12.808Z,81.18
2019-01-14T03:58:19.129Z,80.67
2019-01-14T03:59:25.514Z,79.57
2019-01-14T04:00:31.826Z,80.79
2019-01-14T04:01:38.178Z,80.20
2019-01-14T04:02:44.466Z,80.58
2019-01-14T04:03:50.765Z,80.92
2019-01-14T04:04:57.297Z,80.16
2019-01-14T04:06:03.597Z,80.77
2019-01-14T04:07:13.554Z,81.06
2019-01-14T04:08:15.892Z,81.28
2019-01-14T04:09:21.858Z,81.28
2019-01-14T04:10:28.202Z,81.38
2019-01-14T04:11:34.503Z,81.27
2019-01-14T04:12:40.791Z,81.52
2019-01-14T04:13:47.128Z,81.75
2019-01-14T04:14:53.479Z,82.21
2019-01-14T04:15:59.745Z,81.80
2019-01-14T04:17:06.077Z,81.36
2019-01-14T04:18:11.664Z,81.37
2019-01-14T04:19:18.001Z,80.84
2019-01-14T04:20:24.332Z,81.43
2019-01-14T04:21:30.619Z,82.39
2019-01-14T04:22:36.962Z,82.41
2019-01-14T04:23:43.232Z,81.61
2019-01-14T04:24:49.530Z,81.84
2019-01-14T04:25:55.843Z,81.38
2019-01-14T04:27:02.156Z,81.54
2019-01-14T04:28:08.471Z,81.19
2019-01-14T04:29:14.780Z,81.26
2019-01-14T04:30:20.448Z,80.86
2019-01-14T04:31:26.763Z,80.60
2019-01-14T04:32:33.043Z,80.98
2019-01-14T04:33:39.365Z,81.22
2019-01-14T04:34:45.669Z,80.92
2019-01-14T04:35:51.934Z,81.29
2019-01-14T04:36:58.208Z,81.26
2019-01-14T04:38:03.783Z,80.91
2019-01-14T04:39:09.826Z,80.86
2019-01-14T04:40:15.487Z,80.50
2019-01-14T04:41:21.876Z,80.38
2019-01-14T04:42:28.155Z,80.71
2019-01-14T04:43:34.527Z,80.34
2019-01-14T04:44:40.822Z,80.10
2019-01-14T04:45:46.787Z,80.09
2019-01-14T04:46:53.077Z,80.12
2019-01-14T04:47:59.360Z,80.68
2019-01-14T04:49:06.512Z,80.89
2019-01-14T04:50:13.383Z,80.78
2019-01-14T04:51:20.420Z,81.17
2019-01-14T04:52:27.145Z,81.15
2019-01-14T04:53:38.567Z,80.90
2019-01-14T04:54:49.961Z,80.83
2019-01-14T05:08:57.278Z,83.50
2019-01-14T05:20:54.671Z,81.93
2019-01-14T05:22:00.650Z,82.38
2019-01-14T05:23:07.000Z,82.30
2019-01-14T05:24:13.342Z,82.57
2019-01-14T05:25:19.654Z,82.76
2019-01-14T05:26:25.612Z,82.30
2019-01-14T05:27:31.923Z,82.30
2019-01-14T05:28:38.207Z,81.73
2019-01-14T05:29:44.503Z,81.98
2019-01-14T05:30:50.828Z,82.16
2019-01-14T05:31:56.944Z,81.43
2019-01-14T05:33:03.257Z,82.00
2019-01-14T05:34:10.506Z,81.81
2019-01-14T05:35:16.808Z,82.37
2019-01-14T05:36:23.902Z,82.17
2019-01-14T05:37:37.437Z,82.28
2019-01-14T05:38:37.133Z,82.28
2019-01-14T05:39:43.508Z,82.58
2019-01-14T05:40:49.799Z,83.05
2019-01-14T05:41:56.144Z,82.38
2019-01-14T05:43:02.554Z,82.06
2019-01-14T05:44:08.886Z,81.97
2019-01-14T05:45:14.501Z,82.29
2019-01-14T05:46:20.841Z,82.62
2019-01-14T05:47:27.148Z,83.04
2019-01-14T05:48:33.437Z,82.97
2019-01-14T05:49:39.799Z,83.35
2019-01-14T05:50:45.804Z,83.87
2019-01-14T05:51:52.151Z,83.02
2019-01-14T05:52:58.459Z,82.89
2019-01-14T05:54:04.428Z,82.94
2019-01-14T05:55:10.100Z,83.38
2019-01-14T05:56:16.464Z,83.57
2019-01-14T05:57:23.204Z,83.86
2019-01-14T05:58:30.940Z,83.66
2019-01-14T05:59:38.060Z,84.18
2019-01-14T06:00:44.734Z,84.08
2019-01-14T06:01:51.045Z,84.53
2019-01-14T06:02:56.998Z,84.55
2019-01-14T06:04:02.950Z,84.86
2019-01-14T06:05:08.559Z,84.99
2019-01-14T06:06:14.904Z,85.35
2019-01-14T06:07:21.234Z,84.74
2019-01-14T06:08:27.494Z,84.76
2019-01-14T06:09:33.503Z,84.67
2019-01-14T06:10:39.489Z,84.25
2019-01-14T06:11:45.803Z,84.30
2019-01-14T06:12:53.274Z,84.35
2019-01-14T06:13:59.913Z,83.88
2019-01-14T06:15:05.502Z,83.97
2019-01-14T06:16:11.835Z,84.07
2019-01-14T06:17:18.121Z,83.69
2019-01-14T06:18:24.401Z,84.02
2019-01-14T06:19:30.484Z,84.34
2019-01-14T06:20:37.182Z,84.56
2019-01-14T06:21:43.990Z,84.65
2019-01-14T06:22:50.314Z,83.60
2019-01-14T06:23:56.616Z,83.49
2019-01-14T06:25:02.933Z,83.04
2019-01-14T06:26:09.249Z,83.24
2019-01-14T06:27:15.527Z,82.85
2019-01-14T06:28:21.806Z,82.82
2019-01-14T06:29:28.111Z,83.12
2019-01-14T06:30:33.740Z,82.52
2019-01-14T06:31:40.052Z,82.12
2019-01-14T06:32:46.344Z,82.28
2019-01-14T06:33:52.719Z,82.30
2019-01-14T06:34:58.984Z,82.04
2019-01-14T06:36:04.645Z,81.62
2019-01-14T06:37:10.992Z,81.96
2019-01-14T06:38:16.937Z,82.16
2019-01-14T06:39:23.246Z,81.64
2019-01-14T06:40:29.185Z,81.73
2019-01-14T06:41:37.253Z,80.57
2019-01-14T06:42:43.605Z,80.42
2019-01-14T06:43:50.610Z,80.44
2019-01-14T06:44:57.242Z,79.80
2019-01-14T06:46:03.560Z,79.51
2019-01-14T06:47:09.854Z,79.37
2019-01-14T06:48:15.803Z,79.60
2019-01-14T06:49:22.112Z,79.82
2019-01-14T06:50:28.425Z,79.30
2019-01-14T06:51:34.417Z,78.79
2019-01-14T06:52:40.735Z,79.11
2019-01-14T06:53:47.008Z,78.96
2019-01-14T06:54:53.344Z,78.75
2019-01-14T06:55:59.678Z,78.83
2019-01-14T06:57:05.973Z,78.19
2019-01-14T06:58:11.603Z,77.62
2019-01-14T06:59:17.902Z,77.63
2019-01-14T07:00:23.483Z,77.02
2019-01-14T07:01:29.784Z,76.16
2019-01-14T07:02:35.723Z,76.43
2019-01-14T07:03:42.065Z,76.73
2019-01-14T07:04:49.342Z,76.69
2019-01-14T07:05:56.158Z,76.42
2019-01-14T07:07:02.517Z,76.86
2019-01-14T07:08:08.796Z,77.26
2019-01-14T07:09:14.749Z,76.83
2019-01-14T07:10:22.883Z,76.42
2019-01-14T07:11:28.964Z,77.42
2019-01-14T07:12:34.960Z,77.68
2019-01-14T07:13:41.250Z,78.29
2019-01-14T07:14:47.531Z,78.87
2019-01-14T07:15:53.503Z,79.13
2019-01-14T07:16:59.837Z,79.65
2019-01-14T07:18:05.805Z,80.13
2019-01-14T07:19:12.123Z,81.10
2019-01-14T07:20:17.741Z,81.51
2019-01-14T07:21:24.100Z,81.99
2019-01-14T07:22:30.415Z,82.65
2019-01-14T07:23:36.755Z,83.45
2019-01-14T07:24:43.094Z,84.16
2019-01-14T07:25:50.084Z,83.83
2019-01-14T07:26:56.436Z,84.46
2019-01-14T07:28:02.742Z,84.47
2019-01-14T07:29:09.058Z,84.40
2019-01-14T07:30:15.416Z,82.05
2019-01-14T07:31:21.752Z,82.64
2019-01-14T07:32:28.041Z,82.59
2019-01-14T07:33:34.351Z,81.26
2019-01-14T07:34:40.682Z,81.17
2019-01-14T07:35:47.007Z,81.50
2019-01-14T07:36:54.137Z,82.25
2019-01-14T07:38:06.418Z,81.44
2019-01-14T07:39:05.751Z,81.69
2019-01-14T07:40:11.365Z,81.19
2019-01-14T07:41:17.696Z,81.88
2019-01-14T07:42:23.996Z,81.81
2019-01-14T07:43:30.333Z,81.80
2019-01-14T07:44:36.666Z,81.68
2019-01-14T07:45:42.953Z,81.79
2019-01-14T07:46:49.294Z,82.66
2019-01-14T07:47:55.564Z,83.15
2019-01-14T07:49:01.887Z,82.64
2019-01-14T07:50:07.514Z,82.05
2019-01-14T07:51:13.820Z,80.90
2019-01-14T07:52:20.182Z,80.60
2019-01-14T07:53:26.483Z,79.62
2019-01-14T07:54:32.843Z,79.16
2019-01-14T07:55:38.773Z,79.91
2019-01-14T07:56:44.832Z,80.92
2019-01-14T07:57:51.170Z,80.32
2019-01-14T07:58:57.214Z,80.27
2019-01-14T08:00:02.943Z,80.07
2019-01-14T08:01:09.046Z,80.51
2019-01-14T08:02:15.025Z,80.16
2019-01-14T08:03:21.305Z,79.94
2019-01-14T08:04:27.719Z,79.70
2019-01-14T08:05:34.000Z,80.61
2019-01-14T08:06:40.276Z,81.13
2019-01-14T08:07:45.929Z,81.99
2019-01-14T08:08:52.244Z,82.59
2019-01-14T08:09:59.232Z,83.30
2019-01-14T08:11:05.658Z,84.24
2019-01-14T08:12:12.040Z,85.64
2019-01-14T08:13:18.927Z,86.43
2019-01-14T08:14:25.559Z,86.34
2019-01-14T08:15:31.516Z,87.38
2019-01-14T08:16:37.840Z,87.47
2019-01-14T08:17:43.775Z,88.84
2019-01-14T08:18:50.087Z,89.20
2019-01-14T08:19:56.396Z,90.22
2019-01-14T08:21:02.387Z,90.95
2019-01-14T08:22:08.711Z,94.28
2019-01-14T08:23:15.107Z,94.58
2019-01-14T08:24:21.442Z,95.90
2019-01-14T08:25:27.731Z,95.63
2019-01-14T08:26:34.034Z,95.98
2019-01-14T08:27:39.791Z,97.62
2019-01-14T08:28:46.137Z,98.85
2019-01-14T08:29:52.430Z,97.73
2019-01-14T08:30:58.743Z,98.25
2019-01-14T08:32:04.425Z,98.85
2019-01-14T08:33:10.695Z,99.45
2019-01-14T08:34:17.070Z,98.64
2019-01-14T08:35:23.393Z,99.46
2019-01-14T08:36:29.706Z,100.00
2019-01-14T08:37:36.050Z,100.00
2019-01-14T08:38:42.363Z,100.00
2019-01-14T08:39:48.637Z,100.00
2019-01-14T08:40:54.690Z,100.00
2019-01-14T08:42:00.821Z,99.90
2019-01-14T08:43:07.142Z,99.09
2019-01-14T08:44:13.204Z,99.94
2019-01-14T08:45:19.142Z,100.00
2019-01-14T08:46:25.274Z,100.00
2019-01-14T08:47:31.657Z,100.00
2019-01-14T08:48:37.966Z,100.00
2019-01-14T08:49:44.276Z,100.00
2019-01-14T08:50:50.561Z,100.00
2019-01-14T08:51:56.874Z,99.92
2019-01-14T08:53:03.224Z,99.11
2019-01-14T08:54:09.500Z,100.00
2019-01-14T08:55:15.131Z,100.00
2019-01-14T08:56:21.446Z,99.95
2019-01-14T08:57:27.442Z,99.77
2019-01-14T08:58:33.775Z,99.44
2019-01-14T08:59:40.028Z,99.14
2019-01-14T09:00:46.310Z,99.16
2019-01-14T09:01:52.606Z,99.37
2019-01-14T09:02:58.910Z,99.27
2019-01-14T09:04:04.526Z,98.98
2019-01-14T09:05:10.134Z,99.66
2019-01-14T09:06:16.417Z,99.07
2019-01-14T09:07:22.401Z,99.55
2019-01-14T09:08:28.850Z,98.90
2019-01-14T09:09:34.394Z,98.22
2019-01-14T09:10:40.656Z,97.64
2019-01-14T09:11:46.950Z,97.46
2019-01-14T09:12:52.626Z,97.35
2019-01-14T09:13:58.905Z,97.74
2019-01-14T09:15:04.510Z,97.52
2019-01-14T09:16:10.423Z,97.82
2019-01-14T09:17:16.782Z,97.66
2019-01-14T09:18:22.687Z,96.43
2019-01-14T09:19:28.996Z,96.75
2019-01-14T09:20:35.375Z,96.79
2019-01-14T09:21:41.644Z,96.10
2019-01-14T09:22:47.309Z,95.63
2019-01-14T09:23:53.634Z,94.99
2019-01-14T09:24:59.907Z,95.31
2019-01-14T09:26:05.882Z,93.67
2019-01-14T09:27:12.219Z,93.36
2019-01-14T09:28:18.540Z,93.71
2019-01-14T09:29:24.786Z,93.86
2019-01-14T09:30:31.047Z,93.41
2019-01-14T09:31:37.403Z,92.94
2019-01-14T09:32:43.841Z,92.58
2019-01-14T09:33:49.518Z,92.85
2019-01-14T09:34:56.639Z,92.58
2019-01-14T09:36:03.285Z,91.94
2019-01-14T09:37:09.641Z,92.61
2019-01-14T09:38:16.041Z,91.42
2019-01-14T09:39:22.364Z,91.71
2019-01-14T09:40:28.506Z,91.79
2019-01-14T09:41:34.831Z,91.89
2019-01-14T09:42:41.183Z,92.46
2019-01-14T09:43:47.508Z,92.76
2019-01-14T09:44:53.816Z,93.17
2019-01-14T09:46:00.109Z,93.67
2019-01-14T09:47:06.105Z,94.31
2019-01-14T09:48:12.441Z,94.24
2019-01-14T09:49:18.765Z,93.71
2019-01-14T09:50:25.035Z,92.50
2019-01-14T09:51:31.311Z,92.99
2019-01-14T09:52:37.599Z,93.07
2019-01-14T09:53:43.906Z,92.72
2019-01-14T09:54:50.236Z,92.31
2019-01-14T09:55:57.222Z,92.35
2019-01-14T09:57:04.167Z,92.26
2019-01-14T09:58:10.502Z,91.99
2019-01-14T09:59:16.879Z,91.28
2019-01-14T10:00:23.203Z,91.80
2019-01-14T10:01:29.482Z,92.40
2019-01-14T10:02:35.417Z,91.54
2019-01-14T10:03:41.824Z,88.85
2019-01-14T10:04:48.160Z,88.62
2019-01-14T10:05:54.461Z,88.47
2019-01-14T10:07:00.749Z,87.66
2019-01-14T10:08:07.071Z,88.53
2019-01-14T10:09:13.377Z,87.45
2019-01-14T10:10:19.049Z,87.18
2019-01-14T10:11:25.313Z,85.58
2019-01-14T10:12:31.676Z,85.26
2019-01-14T10:13:38.128Z,85.77
2019-01-14T10:14:44.666Z,85.68
2019-01-14T10:15:50.270Z,86.52
2019-01-14T10:16:56.344Z,85.27
2019-01-14T10:18:02.788Z,85.86
2019-01-14T10:19:08.838Z,86.61
2019-01-14T10:20:15.144Z,86.18
2019-01-14T10:21:21.457Z,84.68
2019-01-14T10:22:27.741Z,85.05
2019-01-14T10:23:34.095Z,85.96
2019-01-14T10:24:40.398Z,86.85
2019-01-14T10:25:46.493Z,86.29
2019-01-14T10:26:52.804Z,85.89
2019-01-14T10:27:59.120Z,85.60
2019-01-14T10:29:05.107Z,85.48
2019-01-14T10:30:12.672Z,86.43
2019-01-14T10:31:20.067Z,86.91
2019-01-14T10:32:25.413Z,85.14
2019-01-14T10:33:31.768Z,85.10
2019-01-14T10:34:38.098Z,84.31
2019-01-14T10:35:44.466Z,84.42
2019-01-14T10:36:50.819Z,84.58
2019-01-14T10:37:57.115Z,84.83
2019-01-14T10:39:02.873Z,85.37
2019-01-14T10:40:08.496Z,85.72
2019-01-14T10:41:14.791Z,86.42
2019-01-14T10:42:21.109Z,86.21
2019-01-14T10:43:27.480Z,85.98
2019-01-14T10:44:33.474Z,85.86
2019-01-14T10:45:39.758Z,86.98
2019-01-14T10:46:46.051Z,87.39
2019-01-14T10:47:51.983Z,88.64
2019-01-14T10:48:58.315Z,88.75
2019-01-14T10:50:03.700Z,87.56
2019-01-14T10:51:09.992Z,87.56
2019-01-14T10:52:16.309Z,87.25
2019-01-14T10:53:22.613Z,87.36
2019-01-14T10:54:28.869Z,87.17
2019-01-14T10:55:35.134Z,86.75
2019-01-14T10:56:43.994Z,88.02
2019-01-14T10:57:47.096Z,87.51
2019-01-14T10:58:53.438Z,87.49
2019-01-14T11:00:00.408Z,87.66
2019-01-14T11:01:08.058Z,87.13
2019-01-14T11:02:14.379Z,87.08
2019-01-14T11:03:20.313Z,87.39
2019-01-14T11:04:26.252Z,86.59
2019-01-14T11:05:31.866Z,87.00
2019-01-14T11:06:38.246Z,87.37
2019-01-14T11:07:43.837Z,86.45
2019-01-14T11:08:57.307Z,85.76
2019-01-14T11:09:59.398Z,85.53
2019-01-14T11:11:05.672Z,85.89
2019-01-14T11:12:11.961Z,85.48
2019-01-14T11:13:18.260Z,84.82
2019-01-14T11:14:24.579Z,86.24
2019-01-14T11:15:30.866Z,86.70
2019-01-14T11:16:37.167Z,87.18
2019-01-14T11:17:43.435Z,86.30
2019-01-14T11:18:49.081Z,86.69
2019-01-14T11:19:56.419Z,86.28
2019-01-14T11:21:01.815Z,85.89
2019-01-14T11:22:07.783Z,86.42
2019-01-14T11:23:13.745Z,86.16
2019-01-14T11:24:20.047Z,86.91
2019-01-14T11:25:26.008Z,86.52
2019-01-14T11:26:32.061Z,86.54
2019-01-14T11:27:38.377Z,86.95
2019-01-14T11:28:44.742Z,86.96
2019-01-14T11:29:51.568Z,86.71
2019-01-14T11:30:57.973Z,87.99
2019-01-14T11:32:03.946Z,88.28
2019-01-14T11:33:10.218Z,87.72
2019-01-14T11:34:16.524Z,88.50
2019-01-14T11:35:22.437Z,88.22
2019-01-14T11:36:28.815Z,88.31
2019-01-14T11:37:35.102Z,88.29
2019-01-14T11:38:40.716Z,88.61
2019-01-14T11:39:46.689Z,87.46
2019-01-14T11:40:53.027Z,87.81
2019-01-14T11:41:59.290Z,87.92
2019-01-14T11:43:06.406Z,88.75
2019-01-14T11:44:13.072Z,88.29
2019-01-14T11:45:19.034Z,88.19
2019-01-14T11:46:25.339Z,88.05
2019-01-14T11:47:31.622Z,85.73
2019-01-14T11:48:37.916Z,85.40
2019-01-14T11:49:44.187Z,85.56
2019-01-14T11:50:56.822Z,84.41
2019-01-14T11:52:03.093Z,84.38
2019-01-14T11:53:09.021Z,83.65
2019-01-14T11:54:15.333Z,83.87
2019-01-14T11:55:21.613Z,82.21
2019-01-14T11:56:27.909Z,83.39
2019-01-14T11:57:33.818Z,79.89
2019-01-14T11:58:40.614Z,79.86
2019-01-14T11:59:46.914Z,79.64
2019-01-14T12:00:53.201Z,78.04
2019-01-14T12:01:59.207Z,77.87
2019-01-14T12:03:04.900Z,75.68
2019-01-14T12:04:11.999Z,76.30
2019-01-14T12:05:17.590Z,76.63
2019-01-14T12:06:23.978Z,76.67
2019-01-14T12:07:30.321Z,75.30
2019-01-14T12:08:36.672Z,74.73
2019-01-14T12:09:43.005Z,74.26
2019-01-14T12:10:48.586Z,73.68
2019-01-14T12:11:54.541Z,73.13
2019-01-14T12:13:00.856Z,74.37
2019-01-14T12:14:07.205Z,74.83
2019-01-14T12:15:17.516Z,74.23
2019-01-14T12:16:23.775Z,73.97
2019-01-14T12:17:30.053Z,75.61
2019-01-14T12:18:36.358Z,75.30
2019-01-14T12:19:42.685Z,76.06
2019-01-14T12:20:49.014Z,75.49
2019-01-14T12:21:55.327Z,76.06
2019-01-14T12:23:01.623Z,77.02
2019-01-14T12:24:07.951Z,76.14
2019-01-14T12:25:14.397Z,76.20
2019-01-14T12:26:20.670Z,76.04
2019-01-14T12:27:26.939Z,75.87
2019-01-14T12:28:33.355Z,76.38
2019-01-14T12:29:39.688Z,76.81
2019-01-14T12:30:45.357Z,76.69
2019-01-14T12:31:51.674Z,77.22
2019-01-14T12:32:57.659Z,77.12
2019-01-14T12:34:03.643Z,77.87
2019-01-14T12:35:09.255Z,77.38
2019-01-14T12:36:15.576Z,78.46
2019-01-14T12:37:21.897Z,77.55
2019-01-14T12:38:28.160Z,78.05
2019-01-14T12:39:34.508Z,78.63
2019-01-14T12:40:40.822Z,78.60
2019-01-14T12:41:51.048Z,78.29
2019-01-14T12:42:53.163Z,78.77
2019-01-14T12:43:59.488Z,79.02
2019-01-14T12:45:05.142Z,79.10
2019-01-14T12:46:11.403Z,80.32
2019-01-14T12:47:17.677Z,81.95
2019-01-14T12:48:23.982Z,85.95
2019-01-14T12:49:30.275Z,87.32
2019-01-14T12:50:36.576Z,88.27
2019-01-14T12:51:42.518Z,88.74
2019-01-14T12:52:48.173Z,88.89
2019-01-14T12:53:54.492Z,90.37
2019-01-14T12:55:00.859Z,90.36
2019-01-14T12:56:07.175Z,90.08
2019-01-14T12:57:13.487Z,89.09
2019-01-14T12:58:19.795Z,89.26
2019-01-14T12:59:26.101Z,89.66
2019-01-14T13:00:32.113Z,90.29
2019-01-14T13:01:38.628Z,89.31
2019-01-14T13:02:44.554Z,88.80
2019-01-14T13:03:50.853Z,88.66
2019-01-14T13:04:57.186Z,88.92
2019-01-14T13:06:03.161Z,87.16
2019-01-14T13:07:09.519Z,86.70
2019-01-14T13:08:16.551Z,86.23
2019-01-14T13:09:26.863Z,86.11
2019-01-14T13:10:29.632Z,84.38
2019-01-14T13:11:35.931Z,83.16
2019-01-14T13:12:41.919Z,82.40
2019-01-14T13:13:48.186Z,81.19
2019-01-14T13:14:54.513Z,80.74
2019-01-14T13:16:00.847Z,79.87
2019-01-14T13:17:07.150Z,78.96
2019-01-14T13:18:13.467Z,77.81
2019-01-14T13:19:19.804Z,77.87
2019-01-14T13:20:25.877Z,78.05
2019-01-14T13:21:32.181Z,76.64
2019-01-14T13:22:38.509Z,76.26
2019-01-14T13:23:45.444Z,76.19
2019-01-14T13:24:51.791Z,76.94
2019-01-14T13:25:58.055Z,76.77
2019-01-14T13:27:03.975Z,76.79
2019-01-14T13:28:09.916Z,77.06
2019-01-14T13:29:16.191Z,76.06
2019-01-14T13:30:26.580Z,74.99
2019-01-14T13:31:33.673Z,75.59
2019-01-14T13:32:41.081Z,75.09
2019-01-14T13:33:47.991Z,75.82
2019-01-14T13:34:54.808Z,76.21
2019-01-14T13:36:01.269Z,76.09
2019-01-14T13:37:07.461Z,76.67
2019-01-14T13:38:13.675Z,76.68
2019-01-14T13:39:19.962Z,77.23
2019-01-14T13:40:26.269Z,76.97
2019-01-14T13:41:32.578Z,78.21
2019-01-14T13:42:38.856Z,79.19
2019-01-14T13:43:45.156Z,80.36
2019-01-14T13:44:51.510Z,81.50
2019-01-14T13:45:57.871Z,81.42
2019-01-14T13:47:03.811Z,82.35
2019-01-14T13:48:09.805Z,82.62
2019-01-14T13:49:16.097Z,83.45
2019-01-14T13:50:23.345Z,83.39
2019-01-14T13:51:29.674Z,83.16
2019-01-14T13:52:35.652Z,83.11
2019-01-14T13:53:41.979Z,82.99
2019-01-14T13:54:48.264Z,83.82
2019-01-14T13:55:59.404Z,83.73
2019-01-14T13:57:01.002Z,83.86
2019-01-14T13:58:07.301Z,84.11
2019-01-14T13:59:13.274Z,83.85
2019-01-14T14:00:18.929Z,84.62
2019-01-14T14:01:25.235Z,85.45
2019-01-14T14:02:31.514Z,85.06
2019-01-14T14:03:37.832Z,85.15
2019-01-14T14:04:44.130Z,85.62
2019-01-14T14:05:50.439Z,86.01
2019-01-14T14:06:56.374Z,89.11
2019-01-14T14:08:02.346Z,93.58
2019-01-14T14:09:08.030Z,100.00
2019-01-14T14:10:15.462Z,100.00
2019-01-14T14:11:21.981Z,100.00
2019-01-14T14:12:28.329Z,100.00
2019-01-14T14:13:34.671Z,100.00
2019-01-14T14:14:41.156Z,100.00
2019-01-14T14:15:47.194Z,100.00
2019-01-14T14:16:53.183Z,100.00
2019-01-14T14:17:59.533Z,100.00
2019-01-14T14:19:05.600Z,100.00
2019-01-14T14:20:11.572Z,100.00
2019-01-14T14:21:17.973Z,100.00
2019-01-14T14:22:24.338Z,100.00
2019-01-14T14:23:30.658Z,100.00
2019-01-14T14:24:37.030Z,100.00
2019-01-14T14:25:43.378Z,100.00
2019-01-14T14:26:49.757Z,100.00
2019-01-14T14:27:56.090Z,100.00
2019-01-14T14:29:02.431Z,100.00
2019-01-14T14:30:14.009Z,100.00
2019-01-14T14:31:20.363Z,99.92
2019-01-14T14:32:26.739Z,98.72
2019-01-14T14:33:33.381Z,97.94
2019-01-14T14:34:39.774Z,97.94
2019-01-14T14:35:47.874Z,98.14
2019-01-14T14:36:54.259Z,98.16